CDT,Max TemperatureF,Mean TemperatureF,Min TemperatureF,Max Dew PointF,MeanDew PointF,Min DewpointF,Max Humidity, Mean Humidity, Min Humidity, Max Sea Level PressureIn, Mean Sea Level PressureIn, Min Sea Level PressureIn, Max VisibilityMiles, Mean VisibilityMiles, Min VisibilityMiles, Max Wind SpeedMPH, Mean Wind SpeedMPH, Max Gust SpeedMPH,PrecipitationIn, CloudCover, Events, WindDirDegrees
2010-10-1,83,72,61,59,52,47,78,53,28,30.17,30.09,30.02,10,10,7,13,5,15,0.00,0,,65
2010-10-2,82,72,61,53,50,46,72,50,28,30.19,30.12,30.05,10,10,10,14,5,20,0.00,1,,69
2010-10-3,67,59,51,49,43,39,67,52,37,30.35,30.26,30.19,10,10,10,14,6,16,0.00,1,,50
2010-10-4,77,63,48,45,41,37,86,58,29,30.31,30.24,30.18,10,10,10,16,9,28,0.00,0,,143
2010-10-5,79,68,56,40,38,35,55,38,21,30.30,30.24,30.19,10,10,10,20,11,24,0.00,1,,145
2010-10-6,83,69,54,51,44,39,64,44,24,30.32,30.24,30.17,10,10,10,12,6,16,0.00,0,,161
2010-10-7,85,70,55,52,44,40,66,44,22,30.25,30.17,30.10,10,10,10,13,5,18,0.00,0,,166
2010-10-8,82,70,58,45,41,38,55,38,20,30.15,30.08,30.02,10,10,10,16,7,21,0.00,0,,188
2010-10-9,86,73,59,50,46,42,55,40,25,30.09,30.00,29.93,10,10,10,16,9,22,0.00,0,,177
2010-10-10,87,73,59,57,53,51,72,51,30,29.94,29.85,29.75,10,10,10,22,13,30,0.00,0,Thunderstorm,166
2010-10-11,82,70,58,58,53,47,93,62,31,29.99,29.89,29.79,10,9,6,15,7,22,0.00,2,,321
2010-10-12,81,66,51,51,46,42,83,55,26,30.17,30.07,29.95,10,9,2,21,6,26,0.00,0,,347
2010-10-13,77,64,50,52,45,38,83,57,31,30.35,30.28,30.18,10,10,3,21,7,28,0.00,0,,355
2010-10-14,78,61,43,40,36,29,71,45,19,30.39,30.29,30.17,10,10,9,10,3,14,0.00,0,,162
2010-10-15,85,70,55,43,39,33,48,34,20,30.20,30.11,30.02,10,10,8,15,7,18,0.00,0,,172
2010-10-16,84,69,54,43,40,38,57,39,20,30.12,30.07,30.01,10,10,10,16,9,24,0.00,0,,168
2010-10-17,81,69,57,50,45,40,57,43,28,30.11,30.02,29.94,10,10,10,17,9,21,0.00,0,,169
2010-10-18,84,73,61,62,53,50,90,61,31,29.99,29.90,29.82,10,9,4,29,12,32,0.21,1,Rain-Thunderstorm,183
2010-10-19,78,69,60,59,57,55,90,69,48,30.02,29.94,29.86,10,10,9,20,6,25,0.02,2,Rain-Thunderstorm,5
2010-10-20,82,69,56,63,59,55,100,75,49,30.15,30.05,29.98,10,7,0,10,3,14,0.00,2,Fog,109
2010-10-21,83,72,61,63,59,56,97,69,40,30.01,29.92,29.81,10,10,9,23,12,32,0.00,2,,146
2010-10-22,82,75,68,64,61,50,87,61,35,29.94,29.86,29.78,10,10,10,23,14,28,T,5,,159
2010-10-23,73,64,55,64,58,52,100,82,63,30.01,29.90,29.79,10,8,1,25,12,32,1.29,5,Rain-Thunderstorm,174
2010-10-24,82,70,58,54,46,38,80,51,21,29.88,29.81,29.72,10,10,10,25,12,32,0.00,0,,212
2010-10-25,87,72,57,49,44,41,57,39,21,29.70,29.50,29.34,10,10,10,30,13,37,0.00,0,,202
2010-10-26,75,62,49,46,40,30,77,50,22,29.81,29.70,29.47,10,10,9,31,6,41,0.00,0,,272
2010-10-27,76,63,50,46,37,31,72,46,20,30.27,29.96,29.75,10,10,6,17,7,25,0.00,0,,2
2010-10-28,68,54,40,37,29,23,70,44,17,30.55,30.46,30.29,10,10,10,17,6,22,0.00,0,Rain,26
2010-10-29,72,53,34,32,27,23,82,50,17,30.48,30.34,30.14,10,10,10,15,8,20,0.00,0,,171
2010-10-30,83,68,53,41,32,22,36,28,20,30.11,29.98,29.87,10,10,10,21,13,29,0.00,0,,196
2010-10-31,90,75,59,45,39,35,46,31,16,29.96,29.86,29.80,10,10,10,23,10,31,0.00,0,,229